Victoria Regional Airport
KVCT : now visible

Airfield :











YOU CAN JOIN US ON...

 
LOGIN :

Register | Disclaimer

   EN    FR    IT 

 









Legend :    VFR   Marginal VFR   IFR   Intensive IFR   Very Intensive IFR
Visi :
Ceiling :
>= 8 km
>= 3000ft
5 to 8 km
1000 to 3000 ft
1500m to 5 km
500 to 1000 ft
800 to 1500m
200 to 500 ft
< 800m
< 200 ft
Symbols :   Thunderstorms  Fog  Heavy snow  Heavy precipitations  Wind > 20 kt






- Airport Elevation : 115 ft
- IATA code : VCT


KVCT - Victoria Regional

CURRENT METAR :
  • 170251Z 15008KT 10SM OVC005 19/17 A2996 RMK AO2 SLP144 T01890167 53014 $

EXPIRED METARs :
  • 170236Z 15009KT 10SM BKN005 19/17 A2995 RMK AO2 T01890167 $
  • 170224Z 15009KT 10SM SCT006 19/17 A2995 RMK AO2 T01890167 $
  • 170151Z 15011KT 10SM CLR 19/17 A2995 RMK AO2 SLP140 T01940172 $
  • 170051Z 13007KT 10SM CLR 21/17 A2993 RMK AO2 SLP133 T02110167 $

TAF KVCT
Valid from the 17 at 00:00 until the 18 at 00:00 UTC


162328Z 1700/1724 16006KT P6SM FEW020
FM170300 16005KT 6SM BR OVC015
FM170600 16006KT 1/2SM FG OVC003
FM171600 19009KT 6SM BR OVC007
FM171800 18013G20KT P6SM BKN025



MET'MAP, your aeronautical weather chart ! - Copyright ORBIFLY December 2007 - Disclaimer

ORBIFLY MET'MAP TEAM :

Programming & Development : Alexandra Zaïnal
Concept & original design : Baudouin d'Aumeries
Assistance for programming : Marc-Olivier Méhu
Technical & hardware support : Manuel Goepfert

Contact : metmap@orbifly.com




SOURCES & CREDITS :

   NOAA       Earth
Advisory